sensor_id;sensor_type;location;lat;lon;timestamp;P1;durP1;ratioP1;P2;durP2;ratioP2
34134;SDS011;20410;55.578;12.968;2023-08-12T00:00:51;4.95;;;2.92;;
34134;SDS011;20410;55.578;12.968;2023-08-12T00:03:16;3.28;;;2.80;;
34134;SDS011;20410;55.578;12.968;2023-08-12T00:05:42;4.82;;;2.78;;
34134;SDS011;20410;55.578;12.968;2023-08-12T00:08:08;4.00;;;2.67;;
34134;SDS011;20410;55.578;12.968;2023-08-12T00:10:34;4.00;;;2.50;;
34134;SDS011;20410;55.578;12.968;2023-08-12T00:13:00;4.53;;;2.47;;
34134;SDS011;20410;55.578;12.968;2023-08-12T00:15:25;4.65;;;2.55;;
34134;SDS011;20410;55.578;12.968;2023-08-12T00:17:51;3.20;;;2.30;;
34134;SDS011;20410;55.578;12.968;2023-08-12T00:20:17;4.07;;;2.35;;
34134;SDS011;20410;55.578;12.968;2023-08-12T00:22:43;6.88;;;2.50;;
34134;SDS011;20410;55.578;12.968;2023-08-12T00:25:09;4.75;;;2.20;;
34134;SDS011;20410;55.578;12.968;2023-08-12T00:27:35;6.40;;;2.38;;
34134;SDS011;20410;55.578;12.968;2023-08-12T00:30:00;3.58;;;2.10;;
34134;SDS011;20410;55.578;12.968;2023-08-12T00:32:26;2.47;;;2.13;;
34134;SDS011;20410;55.578;12.968;2023-08-12T00:34:52;4.88;;;2.30;;
34134;SDS011;20410;55.578;12.968;2023-08-12T00:37:17;4.68;;;2.35;;
34134;SDS011;20410;55.578;12.968;2023-08-12T00:39:43;4.10;;;2.28;;
34134;SDS011;20410;55.578;12.968;2023-08-12T00:42:08;5.15;;;2.25;;
34134;SDS011;20410;55.578;12.968;2023-08-12T00:44:34;3.60;;;2.53;;
34134;SDS011;20410;55.578;12.968;2023-08-12T00:46:59;4.50;;;2.00;;
34134;SDS011;20410;55.578;12.968;2023-08-12T00:49:25;3.42;;;2.30;;
34134;SDS011;20410;55.578;12.968;2023-08-12T00:51:52;2.85;;;1.92;;
34134;SDS011;20410;55.578;12.968;2023-08-12T00:54:18;3.88;;;2.25;;
34134;SDS011;20410;55.578;12.968;2023-08-12T00:56:47;4.55;;;2.10;;
34134;SDS011;20410;55.578;12.968;2023-08-12T00:59:14;3.10;;;2.20;;
34134;SDS011;20410;55.578;12.968;2023-08-12T01:01:41;5.05;;;2.10;;
34134;SDS011;20410;55.578;12.968;2023-08-12T01:04:07;4.88;;;2.33;;
34134;SDS011;20410;55.578;12.968;2023-08-12T01:06:33;2.67;;;2.17;;
34134;SDS011;20410;55.578;12.968;2023-08-12T01:08:59;3.85;;;2.10;;
34134;SDS011;20410;55.578;12.968;2023-08-12T01:11:28;3.63;;;2.03;;
34134;SDS011;20410;55.578;12.968;2023-08-12T01:14:19;4.28;;;2.00;;
34134;SDS011;20410;55.578;12.968;2023-08-12T01:16:56;2.88;;;2.40;;
34134;SDS011;20410;55.578;12.968;2023-08-12T01:19:29;4.63;;;1.90;;
34134;SDS011;20410;55.578;12.968;2023-08-12T01:21:59;3.35;;;2.25;;
34134;SDS011;20410;55.578;12.968;2023-08-12T01:24:26;3.08;;;2.17;;
34134;SDS011;20410;55.578;12.968;2023-08-12T01:26:58;5.03;;;2.40;;
34134;SDS011;20410;55.578;12.968;2023-08-12T01:29:24;4.63;;;2.22;;
34134;SDS011;20410;55.578;12.968;2023-08-12T01:32:07;4.40;;;2.20;;
34134;SDS011;20410;55.578;12.968;2023-08-12T01:37:39;3.67;;;1.90;;
34134;SDS011;20410;55.578;12.968;2023-08-12T01:40:05;3.80;;;2.25;;
34134;SDS011;20410;55.578;12.968;2023-08-12T01:42:34;3.67;;;1.90;;
34134;SDS011;20410;55.578;12.968;2023-08-12T01:45:01;2.85;;;1.80;;
34134;SDS011;20410;55.578;12.968;2023-08-12T01:47:27;2.38;;;1.90;;
34134;SDS011;20410;55.578;12.968;2023-08-12T01:49:53;2.10;;;1.60;;
34134;SDS011;20410;55.578;12.968;2023-08-12T01:52:19;3.08;;;2.00;;
34134;SDS011;20410;55.578;12.968;2023-08-12T01:54:45;3.28;;;1.77;;
34134;SDS011;20410;55.578;12.968;2023-08-12T01:57:11;2.97;;;1.80;;
34134;SDS011;20410;55.578;12.968;2023-08-12T01:59:36;1.88;;;1.70;;
34134;SDS011;20410;55.578;12.968;2023-08-12T02:02:03;2.50;;;1.70;;
34134;SDS011;20410;55.578;12.968;2023-08-12T02:04:29;3.92;;;1.60;;
34134;SDS011;20410;55.578;12.968;2023-08-12T02:06:55;3.28;;;1.65;;
34134;SDS011;20410;55.578;12.968;2023-08-12T02:09:21;2.33;;;1.60;;
34134;SDS011;20410;55.578;12.968;2023-08-12T02:11:47;3.88;;;1.60;;
34134;SDS011;20410;55.578;12.968;2023-08-12T02:14:13;3.40;;;1.60;;
34134;SDS011;20410;55.578;12.968;2023-08-12T02:16:39;3.30;;;1.60;;
34134;SDS011;20410;55.578;12.968;2023-08-12T02:19:04;2.78;;;1.75;;
34134;SDS011;20410;55.578;12.968;2023-08-12T02:21:30;3.92;;;1.75;;
34134;SDS011;20410;55.578;12.968;2023-08-12T02:23:56;2.28;;;1.67;;
34134;SDS011;20410;55.578;12.968;2023-08-12T02:26:22;2.50;;;1.60;;
34134;SDS011;20410;55.578;12.968;2023-08-12T02:28:47;2.80;;;1.60;;
34134;SDS011;20410;55.578;12.968;2023-08-12T02:31:13;2.20;;;1.60;;
34134;SDS011;20410;55.578;12.968;2023-08-12T02:33:40;2.08;;;1.42;;
34134;SDS011;20410;55.578;12.968;2023-08-12T02:36:05;2.85;;;1.80;;
34134;SDS011;20410;55.578;12.968;2023-08-12T02:38:31;5.63;;;1.83;;
34134;SDS011;20410;55.578;12.968;2023-08-12T02:40:56;3.47;;;1.40;;
34134;SDS011;20410;55.578;12.968;2023-08-12T02:43:22;3.35;;;1.60;;
34134;SDS011;20410;55.578;12.968;2023-08-12T02:45:47;1.55;;;1.45;;
34134;SDS011;20410;55.578;12.968;2023-08-12T02:48:13;2.47;;;1.70;;
34134;SDS011;20410;55.578;12.968;2023-08-12T02:50:39;2.05;;;1.50;;
34134;SDS011;20410;55.578;12.968;2023-08-12T02:53:05;3.38;;;1.70;;
34134;SDS011;20410;55.578;12.968;2023-08-12T02:55:31;2.47;;;1.40;;
34134;SDS011;20410;55.578;12.968;2023-08-12T02:57:57;1.80;;;1.40;;
34134;SDS011;20410;55.578;12.968;2023-08-12T03:00:23;3.25;;;1.35;;
34134;SDS011;20410;55.578;12.968;2023-08-12T03:02:48;2.28;;;1.60;;
34134;SDS011;20410;55.578;12.968;2023-08-12T03:05:14;1.80;;;1.50;;
34134;SDS011;20410;55.578;12.968;2023-08-12T03:07:40;1.75;;;1.30;;
34134;SDS011;20410;55.578;12.968;2023-08-12T03:10:05;1.98;;;1.58;;
34134;SDS011;20410;55.578;12.968;2023-08-12T03:12:31;1.92;;;1.30;;
34134;SDS011;20410;55.578;12.968;2023-08-12T03:14:57;2.42;;;1.40;;
34134;SDS011;20410;55.578;12.968;2023-08-12T03:17:23;4.68;;;1.58;;
34134;SDS011;20410;55.578;12.968;2023-08-12T03:19:48;2.38;;;1.60;;
34134;SDS011;20410;55.578;12.968;2023-08-12T03:22:14;4.15;;;1.73;;
34134;SDS011;20410;55.578;12.968;2023-08-12T03:24:39;2.47;;;1.60;;
34134;SDS011;20410;55.578;12.968;2023-08-12T03:27:05;2.67;;;1.52;;
34134;SDS011;20410;55.578;12.968;2023-08-12T03:29:30;2.28;;;1.60;;
34134;SDS011;20410;55.578;12.968;2023-08-12T03:31:56;1.75;;;1.42;;
34134;SDS011;20410;55.578;12.968;2023-08-12T03:34:22;2.92;;;1.52;;
34134;SDS011;20410;55.578;12.968;2023-08-12T03:36:47;1.98;;;1.40;;
34134;SDS011;20410;55.578;12.968;2023-08-12T03:39:13;2.00;;;1.50;;
34134;SDS011;20410;55.578;12.968;2023-08-12T03:41:39;2.38;;;1.40;;
34134;SDS011;20410;55.578;12.968;2023-08-12T03:44:05;3.55;;;1.60;;
34134;SDS011;20410;55.578;12.968;2023-08-12T03:46:30;2.10;;;1.50;;
34134;SDS011;20410;55.578;12.968;2023-08-12T03:48:56;2.22;;;1.50;;
34134;SDS011;20410;55.578;12.968;2023-08-12T03:51:22;1.80;;;1.38;;
34134;SDS011;20410;55.578;12.968;2023-08-12T03:53:47;2.83;;;1.75;;
34134;SDS011;20410;55.578;12.968;2023-08-12T03:56:13;3.38;;;1.52;;
34134;SDS011;20410;55.578;12.968;2023-08-12T03:58:41;1.73;;;1.45;;
34134;SDS011;20410;55.578;12.968;2023-08-12T04:01:07;1.92;;;1.50;;
34134;SDS011;20410;55.578;12.968;2023-08-12T04:03:33;1.80;;;1.42;;
34134;SDS011;20410;55.578;12.968;2023-08-12T04:05:58;2.45;;;1.50;;
34134;SDS011;20410;55.578;12.968;2023-08-12T04:08:24;2.05;;;1.35;;
34134;SDS011;20410;55.578;12.968;2023-08-12T04:10:50;1.75;;;1.42;;
34134;SDS011;20410;55.578;12.968;2023-08-12T04:13:16;2.50;;;1.50;;
34134;SDS011;20410;55.578;12.968;2023-08-12T04:15:41;1.80;;;1.60;;
34134;SDS011;20410;55.578;12.968;2023-08-12T04:18:08;3.22;;;1.50;;
34134;SDS011;20410;55.578;12.968;2023-08-12T04:20:33;2.95;;;1.50;;
34134;SDS011;20410;55.578;12.968;2023-08-12T04:22:59;1.95;;;1.27;;
34134;SDS011;20410;55.578;12.968;2023-08-12T04:25:25;3.20;;;1.52;;
34134;SDS011;20410;55.578;12.968;2023-08-12T04:27:50;3.03;;;1.55;;
34134;SDS011;20410;55.578;12.968;2023-08-12T04:30:16;3.08;;;1.70;;
34134;SDS011;20410;55.578;12.968;2023-08-12T04:32:43;2.72;;;1.70;;
34134;SDS011;20410;55.578;12.968;2023-08-12T04:35:08;2.65;;;1.77;;
34134;SDS011;20410;55.578;12.968;2023-08-12T04:37:35;3.00;;;1.58;;
34134;SDS011;20410;55.578;12.968;2023-08-12T04:40:01;2.47;;;1.73;;
34134;SDS011;20410;55.578;12.968;2023-08-12T04:42:29;2.63;;;1.58;;
34134;SDS011;20410;55.578;12.968;2023-08-12T04:44:54;3.13;;;1.70;;
34134;SDS011;20410;55.578;12.968;2023-08-12T04:47:20;4.03;;;1.60;;
34134;SDS011;20410;55.578;12.968;2023-08-12T04:49:46;3.08;;;1.50;;
34134;SDS011;20410;55.578;12.968;2023-08-12T04:52:11;2.78;;;1.55;;
34134;SDS011;20410;55.578;12.968;2023-08-12T04:54:37;2.35;;;1.50;;
34134;SDS011;20410;55.578;12.968;2023-08-12T04:57:02;2.30;;;1.40;;
34134;SDS011;20410;55.578;12.968;2023-08-12T04:59:28;3.80;;;1.45;;
34134;SDS011;20410;55.578;12.968;2023-08-12T05:01:53;2.05;;;1.50;;
34134;SDS011;20410;55.578;12.968;2023-08-12T05:04:19;3.47;;;1.55;;
34134;SDS011;20410;55.578;12.968;2023-08-12T05:06:45;2.47;;;1.50;;
34134;SDS011;20410;55.578;12.968;2023-08-12T05:09:10;3.05;;;1.60;;
34134;SDS011;20410;55.578;12.968;2023-08-12T05:11:36;2.65;;;1.60;;
34134;SDS011;20410;55.578;12.968;2023-08-12T05:14:01;2.47;;;1.50;;
34134;SDS011;20410;55.578;12.968;2023-08-12T05:16:27;2.63;;;1.50;;
34134;SDS011;20410;55.578;12.968;2023-08-12T05:18:54;2.55;;;1.50;;
34134;SDS011;20410;55.578;12.968;2023-08-12T05:21:19;2.35;;;1.50;;
34134;SDS011;20410;55.578;12.968;2023-08-12T05:23:45;2.88;;;1.60;;
34134;SDS011;20410;55.578;12.968;2023-08-12T05:26:11;2.88;;;1.50;;
34134;SDS011;20410;55.578;12.968;2023-08-12T05:28:36;1.77;;;1.40;;
34134;SDS011;20410;55.578;12.968;2023-08-12T05:31:02;2.33;;;1.40;;
34134;SDS011;20410;55.578;12.968;2023-08-12T05:33:28;2.85;;;1.55;;
34134;SDS011;20410;55.578;12.968;2023-08-12T05:35:53;2.45;;;1.38;;
34134;SDS011;20410;55.578;12.968;2023-08-12T05:38:19;3.53;;;1.83;;
34134;SDS011;20410;55.578;12.968;2023-08-12T05:40:44;2.10;;;1.50;;
34134;SDS011;20410;55.578;12.968;2023-08-12T05:43:10;2.13;;;1.30;;
34134;SDS011;20410;55.578;12.968;2023-08-12T05:45:35;5.20;;;1.42;;
34134;SDS011;20410;55.578;12.968;2023-08-12T05:48:01;2.78;;;1.60;;
34134;SDS011;20410;55.578;12.968;2023-08-12T05:50:26;1.98;;;1.40;;
34134;SDS011;20410;55.578;12.968;2023-08-12T05:52:52;3.10;;;1.58;;
34134;SDS011;20410;55.578;12.968;2023-08-12T05:55:17;2.35;;;1.58;;
34134;SDS011;20410;55.578;12.968;2023-08-12T05:57:43;1.90;;;1.45;;
34134;SDS011;20410;55.578;12.968;2023-08-12T06:00:08;3.92;;;1.52;;
34134;SDS011;20410;55.578;12.968;2023-08-12T06:02:34;2.42;;;1.60;;
34134;SDS011;20410;55.578;12.968;2023-08-12T06:05:00;2.10;;;1.30;;
34134;SDS011;20410;55.578;12.968;2023-08-12T06:07:27;1.80;;;1.60;;
34134;SDS011;20410;55.578;12.968;2023-08-12T06:09:52;3.15;;;1.60;;
34134;SDS011;20410;55.578;12.968;2023-08-12T06:12:18;2.85;;;1.60;;
34134;SDS011;20410;55.578;12.968;2023-08-12T06:14:44;3.15;;;1.80;;
34134;SDS011;20410;55.578;12.968;2023-08-12T06:17:09;3.70;;;1.60;;
34134;SDS011;20410;55.578;12.968;2023-08-12T06:19:35;5.35;;;1.70;;
34134;SDS011;20410;55.578;12.968;2023-08-12T06:22:00;2.92;;;1.80;;
34134;SDS011;20410;55.578;12.968;2023-08-12T06:24:26;2.80;;;1.80;;
34134;SDS011;20410;55.578;12.968;2023-08-12T06:26:52;2.28;;;1.40;;
34134;SDS011;20410;55.578;12.968;2023-08-12T06:29:17;2.25;;;1.70;;
34134;SDS011;20410;55.578;12.968;2023-08-12T06:31:43;2.25;;;1.50;;
34134;SDS011;20410;55.578;12.968;2023-08-12T06:34:08;2.47;;;1.55;;
34134;SDS011;20410;55.578;12.968;2023-08-12T06:36:34;3.65;;;1.67;;
34134;SDS011;20410;55.578;12.968;2023-08-12T06:38:59;3.78;;;1.40;;
34134;SDS011;20410;55.578;12.968;2023-08-12T06:41:25;3.08;;;1.50;;
34134;SDS011;20410;55.578;12.968;2023-08-12T06:43:50;2.42;;;1.40;;
34134;SDS011;20410;55.578;12.968;2023-08-12T06:46:16;2.05;;;1.60;;
34134;SDS011;20410;55.578;12.968;2023-08-12T06:48:41;3.80;;;1.58;;
34134;SDS011;20410;55.578;12.968;2023-08-12T06:51:07;1.75;;;1.40;;
34134;SDS011;20410;55.578;12.968;2023-08-12T06:53:35;4.15;;;1.50;;
34134;SDS011;20410;55.578;12.968;2023-08-12T06:56:01;4.40;;;1.60;;
34134;SDS011;20410;55.578;12.968;2023-08-12T06:58:27;4.13;;;1.70;;
34134;SDS011;20410;55.578;12.968;2023-08-12T07:00:52;3.00;;;1.30;;
34134;SDS011;20410;55.578;12.968;2023-08-12T07:03:18;2.13;;;1.55;;
34134;SDS011;20410;55.578;12.968;2023-08-12T07:05:44;4.68;;;1.90;;
34134;SDS011;20410;55.578;12.968;2023-08-12T07:08:10;6.75;;;1.60;;
34134;SDS011;20410;55.578;12.968;2023-08-12T07:10:39;3.95;;;1.67;;
34134;SDS011;20410;55.578;12.968;2023-08-12T07:13:05;4.47;;;1.83;;
34134;SDS011;20410;55.578;12.968;2023-08-12T07:15:31;3.72;;;1.73;;
34134;SDS011;20410;55.578;12.968;2023-08-12T07:17:56;2.95;;;1.67;;
34134;SDS011;20410;55.578;12.968;2023-08-12T07:20:22;3.10;;;1.73;;
34134;SDS011;20410;55.578;12.968;2023-08-12T07:22:51;3.53;;;1.90;;
34134;SDS011;20410;55.578;12.968;2023-08-12T07:25:17;2.50;;;1.48;;
34134;SDS011;20410;55.578;12.968;2023-08-12T07:27:42;4.68;;;1.70;;
34134;SDS011;20410;55.578;12.968;2023-08-12T07:30:08;3.15;;;1.90;;
34134;SDS011;20410;55.578;12.968;2023-08-12T07:32:35;3.42;;;1.95;;
34134;SDS011;20410;55.578;12.968;2023-08-12T07:35:01;3.08;;;1.67;;
34134;SDS011;20410;55.578;12.968;2023-08-12T07:37:28;4.90;;;2.08;;
34134;SDS011;20410;55.578;12.968;2023-08-12T07:39:54;2.58;;;1.67;;
34134;SDS011;20410;55.578;12.968;2023-08-12T07:42:19;3.67;;;2.20;;
34134;SDS011;20410;55.578;12.968;2023-08-12T07:44:45;2.55;;;1.73;;
34134;SDS011;20410;55.578;12.968;2023-08-12T07:47:11;3.40;;;1.70;;
34134;SDS011;20410;55.578;12.968;2023-08-12T07:49:37;3.30;;;1.70;;
34134;SDS011;20410;55.578;12.968;2023-08-12T07:52:03;4.82;;;2.10;;
34134;SDS011;20410;55.578;12.968;2023-08-12T07:54:28;3.42;;;2.20;;
34134;SDS011;20410;55.578;12.968;2023-08-12T07:56:54;3.42;;;2.10;;
34134;SDS011;20410;55.578;12.968;2023-08-12T07:59:20;5.13;;;2.35;;
34134;SDS011;20410;55.578;12.968;2023-08-12T08:01:45;4.00;;;1.75;;
34134;SDS011;20410;55.578;12.968;2023-08-12T08:04:11;5.05;;;1.67;;
34134;SDS011;20410;55.578;12.968;2023-08-12T08:06:37;4.63;;;1.95;;
34134;SDS011;20410;55.578;12.968;2023-08-12T08:09:03;5.70;;;2.05;;
34134;SDS011;20410;55.578;12.968;2023-08-12T08:11:29;4.70;;;1.90;;
34134;SDS011;20410;55.578;12.968;2023-08-12T08:13:55;5.75;;;1.80;;
34134;SDS011;20410;55.578;12.968;2023-08-12T08:16:22;4.38;;;2.00;;
34134;SDS011;20410;55.578;12.968;2023-08-12T08:18:47;5.35;;;2.10;;
34134;SDS011;20410;55.578;12.968;2023-08-12T08:21:13;6.53;;;1.90;;
34134;SDS011;20410;55.578;12.968;2023-08-12T08:23:40;4.82;;;1.88;;
34134;SDS011;20410;55.578;12.968;2023-08-12T08:26:06;4.70;;;1.90;;
34134;SDS011;20410;55.578;12.968;2023-08-12T08:28:32;4.20;;;1.83;;
34134;SDS011;20410;55.578;12.968;2023-08-12T08:30:57;2.72;;;1.90;;
34134;SDS011;20410;55.578;12.968;2023-08-12T08:33:24;4.70;;;2.22;;
34134;SDS011;20410;55.578;12.968;2023-08-12T08:35:50;6.43;;;2.22;;
34134;SDS011;20410;55.578;12.968;2023-08-12T08:38:16;3.67;;;1.75;;
34134;SDS011;20410;55.578;12.968;2023-08-12T08:40:41;2.97;;;1.70;;
34134;SDS011;20410;55.578;12.968;2023-08-12T08:43:07;4.53;;;2.00;;
34134;SDS011;20410;55.578;12.968;2023-08-12T08:45:34;2.55;;;1.80;;
34134;SDS011;20410;55.578;12.968;2023-08-12T08:48:00;5.32;;;2.05;;
34134;SDS011;20410;55.578;12.968;2023-08-12T08:50:27;3.42;;;1.90;;
34134;SDS011;20410;55.578;12.968;2023-08-12T08:52:55;7.97;;;2.33;;
34134;SDS011;20410;55.578;12.968;2023-08-12T08:55:22;3.03;;;1.80;;
34134;SDS011;20410;55.578;12.968;2023-08-12T08:57:48;3.80;;;1.90;;
34134;SDS011;20410;55.578;12.968;2023-08-12T09:00:15;4.80;;;2.42;;
34134;SDS011;20410;55.578;12.968;2023-08-12T09:02:43;9.65;;;2.35;;
34134;SDS011;20410;55.578;12.968;2023-08-12T09:05:09;3.53;;;1.92;;
34134;SDS011;20410;55.578;12.968;2023-08-12T09:07:37;5.75;;;1.95;;
34134;SDS011;20410;55.578;12.968;2023-08-12T09:10:05;4.38;;;2.00;;
34134;SDS011;20410;55.578;12.968;2023-08-12T09:12:32;3.45;;;1.98;;
34134;SDS011;20410;55.578;12.968;2023-08-12T09:14:58;3.10;;;2.10;;
34134;SDS011;20410;55.578;12.968;2023-08-12T09:17:23;3.92;;;2.05;;
34134;SDS011;20410;55.578;12.968;2023-08-12T09:19:49;6.32;;;2.40;;
34134;SDS011;20410;55.578;12.968;2023-08-12T09:22:15;3.35;;;2.00;;
34134;SDS011;20410;55.578;12.968;2023-08-12T09:24:42;2.53;;;1.88;;
34134;SDS011;20410;55.578;12.968;2023-08-12T09:27:08;2.40;;;2.00;;
34134;SDS011;20410;55.578;12.968;2023-08-12T09:29:34;3.20;;;2.28;;
34134;SDS011;20410;55.578;12.968;2023-08-12T09:34:37;5.57;;;2.10;;
34134;SDS011;20410;55.578;12.968;2023-08-12T09:37:02;3.63;;;2.00;;
34134;SDS011;20410;55.578;12.968;2023-08-12T09:39:28;3.15;;;2.00;;
34134;SDS011;20410;55.578;12.968;2023-08-12T09:41:55;4.88;;;2.30;;
34134;SDS011;20410;55.578;12.968;2023-08-12T09:44:21;5.05;;;2.10;;
34134;SDS011;20410;55.578;12.968;2023-08-12T09:46:47;4.93;;;2.08;;
34134;SDS011;20410;55.578;12.968;2023-08-12T09:49:13;3.97;;;2.35;;
34134;SDS011;20410;55.578;12.968;2023-08-12T09:51:38;5.68;;;2.30;;
34134;SDS011;20410;55.578;12.968;2023-08-12T09:54:09;4.63;;;2.30;;
34134;SDS011;20410;55.578;12.968;2023-08-12T09:56:36;6.03;;;2.30;;
34134;SDS011;20410;55.578;12.968;2023-08-12T09:59:05;3.42;;;1.95;;
34134;SDS011;20410;55.578;12.968;2023-08-12T10:01:34;3.40;;;2.20;;
34134;SDS011;20410;55.578;12.968;2023-08-12T10:04:01;3.72;;;1.88;;
34134;SDS011;20410;55.578;12.968;2023-08-12T10:06:34;4.70;;;2.03;;
34134;SDS011;20410;55.578;12.968;2023-08-12T10:09:00;5.47;;;2.42;;
34134;SDS011;20410;55.578;12.968;2023-08-12T10:11:26;5.75;;;2.33;;
34134;SDS011;20410;55.578;12.968;2023-08-12T10:13:52;4.93;;;2.25;;
34134;SDS011;20410;55.578;12.968;2023-08-12T10:16:18;4.97;;;2.30;;
34134;SDS011;20410;55.578;12.968;2023-08-12T10:18:44;4.15;;;2.22;;
34134;SDS011;20410;55.578;12.968;2023-08-12T10:21:12;7.28;;;2.15;;
34134;SDS011;20410;55.578;12.968;2023-08-12T10:23:39;5.18;;;2.28;;
34134;SDS011;20410;55.578;12.968;2023-08-12T10:26:07;4.80;;;2.30;;
34134;SDS011;20410;55.578;12.968;2023-08-12T10:28:33;3.75;;;2.47;;
34134;SDS011;20410;55.578;12.968;2023-08-12T10:31:02;4.70;;;2.40;;
34134;SDS011;20410;55.578;12.968;2023-08-12T10:33:40;3.88;;;2.40;;
34134;SDS011;20410;55.578;12.968;2023-08-12T10:36:07;6.38;;;2.50;;
34134;SDS011;20410;55.578;12.968;2023-08-12T10:38:34;4.45;;;2.38;;
34134;SDS011;20410;55.578;12.968;2023-08-12T10:41:16;5.40;;;2.50;;
34134;SDS011;20410;55.578;12.968;2023-08-12T10:51:48;3.60;;;2.47;;
34134;SDS011;20410;55.578;12.968;2023-08-12T11:02:21;5.13;;;2.70;;
34134;SDS011;20410;55.578;12.968;2023-08-12T11:04:54;4.47;;;2.90;;
34134;SDS011;20410;55.578;12.968;2023-08-12T11:07:31;7.70;;;2.80;;
34134;SDS011;20410;55.578;12.968;2023-08-12T11:10:21;4.70;;;2.80;;
34134;SDS011;20410;55.578;12.968;2023-08-12T11:15:34;5.78;;;2.80;;
34134;SDS011;20410;55.578;12.968;2023-08-12T11:18:12;4.05;;;2.35;;
34134;SDS011;20410;55.578;12.968;2023-08-12T11:20:43;7.00;;;2.92;;
34134;SDS011;20410;55.578;12.968;2023-08-12T11:23:10;5.88;;;2.67;;
34134;SDS011;20410;55.578;12.968;2023-08-12T11:25:36;4.78;;;2.40;;
34134;SDS011;20410;55.578;12.968;2023-08-12T11:28:06;4.00;;;2.50;;
34134;SDS011;20410;55.578;12.968;2023-08-12T11:30:32;7.10;;;3.13;;
34134;SDS011;20410;55.578;12.968;2023-08-12T11:32:59;2.88;;;2.42;;
34134;SDS011;20410;55.578;12.968;2023-08-12T11:35:26;7.38;;;2.90;;
34134;SDS011;20410;55.578;12.968;2023-08-12T11:37:53;9.10;;;3.05;;
34134;SDS011;20410;55.578;12.968;2023-08-12T11:40:23;4.95;;;2.60;;
34134;SDS011;20410;55.578;12.968;2023-08-12T11:42:50;3.97;;;2.70;;
34134;SDS011;20410;55.578;12.968;2023-08-12T11:45:17;4.43;;;3.10;;
34134;SDS011;20410;55.578;12.968;2023-08-12T11:47:45;6.70;;;2.80;;
34134;SDS011;20410;55.578;12.968;2023-08-12T11:50:18;9.35;;;3.10;;
34134;SDS011;20410;55.578;12.968;2023-08-12T11:52:45;8.75;;;3.20;;
34134;SDS011;20410;55.578;12.968;2023-08-12T11:55:11;5.72;;;3.10;;
34134;SDS011;20410;55.578;12.968;2023-08-12T11:57:39;7.35;;;3.28;;
34134;SDS011;20410;55.578;12.968;2023-08-12T12:00:05;6.25;;;2.70;;
34134;SDS011;20410;55.578;12.968;2023-08-12T12:02:46;7.35;;;2.83;;
34134;SDS011;20410;55.578;12.968;2023-08-12T12:05:21;5.55;;;3.08;;
34134;SDS011;20410;55.578;12.968;2023-08-12T12:07:49;5.65;;;2.85;;
34134;SDS011;20410;55.578;12.968;2023-08-12T12:10:28;5.35;;;2.78;;
34134;SDS011;20410;55.578;12.968;2023-08-12T12:12:55;6.13;;;2.70;;
34134;SDS011;20410;55.578;12.968;2023-08-12T12:15:21;8.30;;;2.92;;
34134;SDS011;20410;55.578;12.968;2023-08-12T12:17:47;4.10;;;2.70;;
34134;SDS011;20410;55.578;12.968;2023-08-12T12:20:17;2.85;;;2.55;;
34134;SDS011;20410;55.578;12.968;2023-08-12T12:22:43;3.63;;;2.40;;
34134;SDS011;20410;55.578;12.968;2023-08-12T12:25:11;4.85;;;2.55;;
34134;SDS011;20410;55.578;12.968;2023-08-12T12:27:38;4.00;;;2.40;;
34134;SDS011;20410;55.578;12.968;2023-08-12T12:30:05;7.65;;;2.60;;
34134;SDS011;20410;55.578;12.968;2023-08-12T12:32:34;5.38;;;2.53;;
34134;SDS011;20410;55.578;12.968;2023-08-12T12:35:00;7.78;;;2.92;;
34134;SDS011;20410;55.578;12.968;2023-08-12T12:37:25;4.95;;;2.70;;
34134;SDS011;20410;55.578;12.968;2023-08-12T12:39:52;8.90;;;3.05;;
34134;SDS011;20410;55.578;12.968;2023-08-12T12:42:17;10.68;;;3.03;;
34134;SDS011;20410;55.578;12.968;2023-08-12T12:44:43;7.22;;;3.30;;
34134;SDS011;20410;55.578;12.968;2023-08-12T12:47:08;5.43;;;2.90;;
34134;SDS011;20410;55.578;12.968;2023-08-12T12:49:36;3.25;;;2.95;;
34134;SDS011;20410;55.578;12.968;2023-08-12T12:52:01;9.00;;;3.55;;
34134;SDS011;20410;55.578;12.968;2023-08-12T12:54:27;7.72;;;3.20;;
34134;SDS011;20410;55.578;12.968;2023-08-12T12:56:54;5.40;;;2.80;;
34134;SDS011;20410;55.578;12.968;2023-08-12T12:59:20;5.78;;;2.80;;
34134;SDS011;20410;55.578;12.968;2023-08-12T13:01:45;6.10;;;3.33;;
34134;SDS011;20410;55.578;12.968;2023-08-12T13:04:11;4.95;;;3.08;;
34134;SDS011;20410;55.578;12.968;2023-08-12T13:06:36;5.75;;;2.90;;
34134;SDS011;20410;55.578;12.968;2023-08-12T13:09:02;4.47;;;2.90;;
34134;SDS011;20410;55.578;12.968;2023-08-12T13:11:28;5.03;;;3.08;;
34134;SDS011;20410;55.578;12.968;2023-08-12T13:13:54;5.10;;;2.95;;
34134;SDS011;20410;55.578;12.968;2023-08-12T13:16:20;6.40;;;2.92;;
34134;SDS011;20410;55.578;12.968;2023-08-12T13:18:45;7.90;;;3.30;;
34134;SDS011;20410;55.578;12.968;2023-08-12T13:21:11;4.07;;;3.10;;
34134;SDS011;20410;55.578;12.968;2023-08-12T13:23:37;6.90;;;3.20;;
34134;SDS011;20410;55.578;12.968;2023-08-12T13:26:02;8.10;;;3.42;;
34134;SDS011;20410;55.578;12.968;2023-08-12T13:28:28;6.57;;;3.58;;
34134;SDS011;20410;55.578;12.968;2023-08-12T13:30:54;5.30;;;3.28;;
34134;SDS011;20410;55.578;12.968;2023-08-12T13:33:20;5.43;;;3.20;;
34134;SDS011;20410;55.578;12.968;2023-08-12T13:35:46;4.90;;;3.00;;
34134;SDS011;20410;55.578;12.968;2023-08-12T13:38:11;8.15;;;3.40;;
34134;SDS011;20410;55.578;12.968;2023-08-12T13:40:37;5.28;;;3.35;;
34134;SDS011;20410;55.578;12.968;2023-08-12T13:43:02;6.18;;;3.08;;
34134;SDS011;20410;55.578;12.968;2023-08-12T13:45:28;4.93;;;2.90;;
34134;SDS011;20410;55.578;12.968;2023-08-12T13:47:54;6.05;;;3.28;;
34134;SDS011;20410;55.578;12.968;2023-08-12T13:50:20;7.50;;;3.50;;
34134;SDS011;20410;55.578;12.968;2023-08-12T13:52:45;7.20;;;2.90;;
34134;SDS011;20410;55.578;12.968;2023-08-12T13:55:15;5.90;;;3.47;;
34134;SDS011;20410;55.578;12.968;2023-08-12T13:57:41;5.55;;;2.88;;
34134;SDS011;20410;55.578;12.968;2023-08-12T14:00:07;8.05;;;3.40;;
34134;SDS011;20410;55.578;12.968;2023-08-12T14:02:35;4.90;;;3.00;;
34134;SDS011;20410;55.578;12.968;2023-08-12T14:05:01;5.05;;;2.83;;
34134;SDS011;20410;55.578;12.968;2023-08-12T14:07:27;5.20;;;3.08;;
34134;SDS011;20410;55.578;12.968;2023-08-12T14:09:52;9.30;;;2.90;;
34134;SDS011;20410;55.578;12.968;2023-08-12T14:12:18;4.40;;;2.85;;
34134;SDS011;20410;55.578;12.968;2023-08-12T14:14:44;4.55;;;2.63;;
34134;SDS011;20410;55.578;12.968;2023-08-12T14:17:10;5.07;;;3.10;;
34134;SDS011;20410;55.578;12.968;2023-08-12T14:19:38;7.18;;;3.20;;
34134;SDS011;20410;55.578;12.968;2023-08-12T14:22:04;4.90;;;3.22;;
34134;SDS011;20410;55.578;12.968;2023-08-12T14:24:30;4.88;;;3.25;;
34134;SDS011;20410;55.578;12.968;2023-08-12T14:26:55;9.38;;;3.50;;
34134;SDS011;20410;55.578;12.968;2023-08-12T14:29:21;5.50;;;3.30;;
34134;SDS011;20410;55.578;12.968;2023-08-12T14:31:46;4.28;;;3.17;;
34134;SDS011;20410;55.578;12.968;2023-08-12T14:34:12;5.85;;;3.47;;
34134;SDS011;20410;55.578;12.968;2023-08-12T14:36:37;5.55;;;3.63;;
34134;SDS011;20410;55.578;12.968;2023-08-12T14:39:03;6.75;;;3.45;;
34134;SDS011;20410;55.578;12.968;2023-08-12T14:41:29;8.40;;;3.33;;
34134;SDS011;20410;55.578;12.968;2023-08-12T14:43:54;5.20;;;3.08;;
34134;SDS011;20410;55.578;12.968;2023-08-12T14:46:20;8.10;;;3.40;;
34134;SDS011;20410;55.578;12.968;2023-08-12T14:48:45;9.07;;;3.28;;
34134;SDS011;20410;55.578;12.968;2023-08-12T14:51:11;6.25;;;3.10;;
34134;SDS011;20410;55.578;12.968;2023-08-12T14:53:36;4.72;;;3.33;;